Latest Coastal Weather Observations for Samuel Hill

IDQ60701

Issued at 1:02 pm EST Tuesday 26 May 2020 (issued every 10 minutes, with the page automatically refreshed every 10 minutes)

About coastal observations | Map of coastal stations | Coastal observations for QLD | Marine services | Other Formats
Station Details ID: 033308 Name: SAMUEL HILL AERO Lat: -22.74 Lon: 150.66 Height: 31.0 m
Data from the previous 72 hours. | See also: Recent months at Samuel Hill
Date/Time
EST
Wind Sea
Height
m
Swell Vis
km
Cloud Weather Temp
°C
Press
hPa
Rain since
9am
mm
Dir  Spd
kts
Gust
kts
Height
m
Period
s
Dir
26/01:00pm WSW 2 6 - - - - 10 Clear - 22.3 1018.4 0.0
26/12:30pm SE 6 12 - - - - 10 - - 22.1 1018.9 0.0
26/12:00pm SSE 6 10 - - - - 10 - - 22.2 1019.3 0.0
26/11:30am S 8 12 - - - - 10 - - 21.5 1019.7 0.0
26/11:00am S 5 8 - - - - 10 - - 21.0 1019.9 0.0
26/10:30am SSE 5 8 - - - - 10 - - 20.4 1020.1 0.0
26/10:00am SSE 5 7 - - - - 10 - - 19.3 1020.2 0.0
26/09:30am SE 2 5 - - - - 10 - - 18.1 1020.4 0.0
26/09:00am SSW 3 5 - - - - 10 - - 16.2 1020.2 0.0
26/08:30am SSW 3 4 - - - - 10 - - 14.6 1020.1 0.0
26/08:00am SSW 4 5 - - - - 10 - - 12.7 1020.0 0.0
26/07:30am CALM 0 0 - - - - - - - 10.4 1019.8 0.0
26/07:00am CALM 0 4 - - - - - - - 6.9 1019.6 0.0
26/06:30am S 2 4 - - - - - - - 6.5 1019.3 0.0
26/06:00am CALM 0 0 - - - - - - - 6.5 1018.9 0.0
26/05:30am CALM 0 3 - - - - - - - 6.6 1018.4 0.0
26/05:00am SSE 2 5 - - - - - - - 7.0 1018.1 0.0
26/04:30am CALM 0 0 - - - - - - - 7.2 1017.9 0.0
26/04:00am W 1 4 - - - - - - - 7.3 1017.9 0.0
26/03:30am CALM 0 0 - - - - - - - 7.5 1018.0 0.0
26/03:00am W 3 5 - - - - - - - 8.5 1018.2 0.0
26/02:30am CALM 0 0 - - - - - - - 7.2 1017.9 0.0
26/02:00am NW 2 4 - - - - - - - 7.6 1018.3 0.0
26/01:30am N 3 5 - - - - 10 - - 8.0 1018.5 0.0
26/01:00am NE 2 4 - - - - 10 - - 7.7 1018.6 0.0
26/12:30am NNE 3 6 - - - - 10 - - 7.6 1018.5 0.0
26/12:00am CALM 0 0 - - - - 10 - - 8.1 1018.6 0.0
 
Date/Time
EST
Wind Sea
Height
m
Swell Vis
km
Cloud Weather Temp
°C
Press
hPa
Rain since
9am
mm
Dir  Spd
kts
Gust
kts
Height
m
Period
s
Dir
25/11:30pm W 1 3 - - - - 10 - - 8.3 1018.8 0.0
25/11:00pm CALM 0 0 - - - - 10 - - 8.2 1018.9 0.0
25/10:30pm CALM 0 0 - - - - 10 - - 8.7 1018.9 0.0
25/10:00pm SE 3 3 - - - - 10 - - 8.8 1019.0 0.0
25/09:30pm NNW 3 4 - - - - 10 - - 9.8 1018.8 0.0
25/09:00pm W 1 4 - - - - 10 - - 9.3 1018.8 0.0
25/08:30pm CALM 0 0 - - - - 10 - - 10.1 1018.6 0.0
25/08:00pm WSW 1 4 - - - - 10 - - 10.3 1018.4 0.0
25/07:30pm CALM 0 0 - - - - 10 - - 10.9 1018.1 0.0
25/07:00pm CALM 0 0 - - - - 10 - - 11.8 1017.6 0.0
25/06:30pm NE 3 4 - - - - 10 - - 12.9 1017.3 0.0
25/06:00pm NE 3 4 - - - - 10 - - 13.6 1016.8 0.0
25/05:30pm NE 3 4 - - - - 10 - - 16.1 1016.4 0.0
25/05:00pm NE 5 8 - - - - 10 - - 17.7 1016.1 0.0
25/04:30pm NE 5 7 - - - - 10 - - 18.8 1015.7 0.0
25/04:00pm NE 7 9 - - - - 10 Partly cloudy - 18.6 1015.7 0.0
25/03:30pm NE 7 10 - - - - 10 Partly cloudy - 20.3 1015.5 0.0
25/03:00pm NW 1 6 - - - - 10 - - 20.0 1015.5 0.0
25/02:30pm WSW 4 5 - - - - 10 - - 21.0 1015.6 0.0
25/02:00pm WNW 5 9 - - - - 10 Partly cloudy - 20.8 1015.7 0.0
25/01:30pm N 5 6 - - - - 10 - - 20.8 1016.0 0.0
25/01:00pm WNW 4 6 - - - - 10 - - 20.5 1016.4 0.0
25/12:30pm WNW 5 7 - - - - 10 - - 19.7 1016.7 0.0
25/12:00pm W 3 6 - - - - 10 - - 19.8 1016.7 0.0
25/11:30am SSW 4 6 - - - - 10 - - 18.7 1017.1 0.0
25/11:00am S 3 6 - - - - 10 - - 18.5 1017.4 0.0
25/10:30am SW 5 7 - - - - 10 - - 17.7 1017.9 0.0
25/10:00am NNW 3 5 - - - - 10 - - 17.2 1018.1 0.0
25/09:30am WNW 3 5 - - - - 10 - - 16.1 1018.1 0.0
25/09:00am WNW 4 5 - - - - 10 - - 14.6 1018.1 0.2
25/08:30am NE 2 4 - - - - 10 - - 14.0 1017.8 0.2
25/08:00am CALM 0 3 - - - - - - - 11.6 1017.7 0.2
25/07:30am CALM 0 0 - - - - - - - 9.5 1017.5 0.2
25/07:00am CALM 0 0 - - - - - - - 6.7 1017.1 0.2
25/06:30am CALM 0 0 - - - - - - - 5.2 1016.9 0.0
25/06:00am SSW 3 7 - - - - - - - 5.9 1016.5 0.0
25/05:30am SW 1 5 - - - - - - - 5.0 1016.5 0.0
25/05:00am CALM 0 0 - - - - - - - 4.8 1016.5 0.0
25/04:30am CALM 0 0 - - - - - - - 5.0 1016.2 0.0
25/04:00am ENE 3 5 - - - - - - - 5.2 1016.0 0.0
25/03:30am E 3 4 - - - - - - - 5.3 1015.8 0.0
25/03:00am ENE 2 5 - - - - - - - 5.4 1015.9 0.0
25/02:30am ESE 4 6 - - - - - - - 5.5 1015.9 0.0
25/02:00am CALM 0 0 - - - - - - - 5.8 1016.2 0.0
25/01:30am WSW 2 4 - - - - - - - 6.3 1016.2 0.0
25/01:00am NW 1 4 - - - - 10 - - 6.3 1016.5 0.0
25/12:30am CALM 0 0 - - - - 10 - - 6.5 1016.5 0.0
25/12:00am NE 1 5 - - - - 10 - - 6.2 1016.7 0.0
 
Date/Time
EST
Wind Sea
Height
m
Swell Vis
km
Cloud Weather Temp
°C
Press
hPa
Rain since
9am
mm
Dir  Spd
kts
Gust
kts
Height
m
Period
s
Dir
24/11:30pm CALM 0 0 - - - - 10 - - 6.7 1016.9 0.0
24/11:00pm CALM 0 0 - - - - 10 - - 7.2 1017.0 0.0
24/10:30pm ESE 3 5 - - - - 10 - - 7.3 1017.2 0.0
24/10:00pm CALM 0 0 - - - - 10 - - 7.6 1017.3 0.0
24/09:30pm NNE 3 5 - - - - 10 - - 7.8 1017.2 0.0
24/09:00pm CALM 0 4 - - - - 10 - - 8.0 1016.8 0.0
24/08:30pm N 1 4 - - - - 10 - - 8.1 1016.7 0.0
24/08:00pm CALM 0 0 - - - - 10 - - 8.8 1016.3 0.0
24/07:30pm CALM 0 0 - - - - 10 - - 9.4 1016.0 0.0
24/07:00pm WNW 2 4 - - - - 10 - - 9.7 1015.4 0.0
24/06:30pm NW 3 4 - - - - 10 - - 10.4 1014.6 0.0
24/06:00pm CALM 0 0 - - - - 10 - - 12.1 1014.1 0.0
24/05:30pm WSW 1 3 - - - - 10 - - 14.5 1013.6 0.0
24/05:00pm SW 4 6 - - - - 10 - - 17.2 1013.2 0.0
24/04:30pm WSW 6 11 - - - - 10 - - 17.9 1013.1 0.0
24/04:00pm WSW 9 13 - - - - 10 - - 18.3 1013.0 0.0
24/03:30pm WSW 8 12 - - - - 10 - - 18.7 1012.8 0.0
24/03:00pm WSW 9 14 - - - - 10 - - 18.6 1012.6 0.0
24/02:30pm WSW 8 13 - - - - 10 - - 18.3 1012.6 0.0
24/02:00pm SW 8 12 - - - - 10 - - 18.2 1013.0 0.0
24/01:30pm SW 9 13 - - - - 10 - - 17.7 1013.6 0.0
24/01:00pm WSW 9 15 - - - - 10 - - 17.6 1014.2 0.0
24/12:30pm SW 8 15 - - - - 10 - - 17.4 1015.0 0.0
24/12:00pm SW 8 13 - - - - 10 - - 16.7 1015.4 0.0
24/11:30am WSW 9 15 - - - - 10 - - 16.4 1015.9 0.0
24/11:00am WSW 6 11 - - - - 10 - - 16.3 1016.2 0.0
24/10:30am NW 5 7 - - - - 10 - - 16.2 1016.8 0.0
24/10:00am WNW 5 7 - - - - 10 - - 15.6 1016.9 0.0
24/09:30am SW 3 6 - - - - 10 - - 15.1 1016.7 0.0
24/09:00am S 6 11 - - - - 10 - - 14.4 1016.5 -
24/08:30am SE 1 6 - - - - 10 - - 13.1 1016.1 -
24/08:00am E 3 5 - - - - 10 - - 12.1 1015.5 -
24/07:30am NNE 2 5 - - - - 10 - - 10.3 1015.3 -
24/07:00am SW 4 5 - - - - 10 - - 8.6 1015.0 -
24/06:30am SW 5 5 - - - - 10 - - 7.6 1014.8 -
24/06:00am SSE 3 5 - - - - 10 - - 7.0 1014.7 -
24/05:30am SW 3 4 - - - - 10 - - 7.0 1014.7 -
24/05:00am WSW 3 5 - - - - 10 - - 7.6 1014.5 -
24/04:30am SSW 1 5 - - - - 10 - - 8.9 1014.2 -
24/04:00am SSW 3 5 - - - - 10 - - 10.2 1014.0 -
24/03:30am SW 8 13 - - - - 10 - - 11.0 1013.2 -
24/03:00am S 3 4 - - - - 10 Mostly clear - 10.2 1014.1 0.0
24/02:30am N 1 3 - - - - 10 - - 9.9 1013.9 -
24/02:00am SSE 5 7 - - - - 10 - - 10.7 1013.6 -
24/01:30am SW 6 10 - - - - 10 - - 11.3 1013.6 -
24/01:00am W 7 11 - - - - 10 - - 10.9 1015.2 -
24/12:30am WSW 4 7 - - - - 10 - - 10.2 1014.9 -
24/12:27am W 3 4 - - - - 10 - - 10.1 1013.9 -
24/12:00am NW 3 6 - - - - 10 Mostly cloudy - 10.4 1015.9 -
 
Date/Time
EST
Wind Sea
Height
m
Swell Vis
km
Cloud Weather Temp
°C
Press
hPa
Rain since
9am
mm
Dir  Spd
kts
Gust
kts
Height
m
Period
s
Dir
23/11:30pm WNW 7 10 - - - - 10 - - 11.1 1015.5 -
23/11:00pm NW 5 7 - - - - 10 - - 10.6 1015.1 -
23/10:30pm N 5 7 - - - - 10 - - 10.7 1015.0 -
23/10:00pm NW 2 4 - - - - 10 - - 11.0 1014.8 -
23/09:30pm W 8 12 - - - - 10 - - 11.3 1016.0 -
23/09:17pm SW 5 8 - - - - 10 - - 10.9 1015.7 -
23/09:10pm SW 4 6 - - - - 10 - - 10.8 1013.7 -
23/09:00pm W 3 7 - - - - 10 Cloudy - 10.8 1015.7 -
23/08:30pm W 6 9 - - - - 10 - - 10.8 1015.4 -
23/08:00pm WNW 3 7 - - - - 10 - - 11.0 1015.7 -
23/07:30pm WSW 5 13 - - - - 10 - - 11.1 1014.2 -
23/07:28pm WSW 6 13 - - - - 10 - - 11.1 1014.2 -
23/07:14pm WSW 7 13 - - - - 10 - - 11.1 1016.3 -
23/07:00pm WSW 4 7 - - - - 10 - - 11.0 1014.1 -
23/06:30pm WNW 4 6 - - - - - Cloudy - 11.0 1015.8 -
23/06:29pm WNW 4 6 - - - - - Partly cloudy - 11.0 1015.8 -
23/06:28pm WNW 4 6 - - - - - Partly cloudy - 11.0 1015.7 -
23/06:07pm NW 3 6 - - - - - - - 11.0 1014.1 -
23/06:06pm NW 2 6 - - - - - - - 11.0 1014.0 -
23/06:00pm - - - - - - - - - - 11.0 1013.8 -
23/05:30pm SW 5 8 - - - - 10 Cloudy - 11.0 1014.0 9.6
23/05:08pm WNW 4 9 - - - - 10 Partly cloudy - 11.2 1015.5 9.6
23/05:00pm NNE 4 6 - - - - 10 Cloudy - 11.1 1013.5 9.6
23/04:30pm SW 2 5 - - - - 10 Partly cloudy - 11.2 1012.8 9.6
23/04:00pm SW 6 11 - - - - 10 Partly cloudy - 11.1 1013.2 9.6
23/03:36pm W 5 7 - - - - 10 Partly cloudy - 11.4 1014.8 9.6
23/03:35pm W 4 7 - - - - 10 Partly cloudy - 11.4 1014.8 9.6
23/03:30pm W 3 6 - - - - 10 Partly cloudy - 11.3 1014.6 9.6
23/03:22pm CALM 0 3 - - - - 10 Partly cloudy - 11.4 1014.0 9.6
23/03:21pm CALM 0 0 - - - - 10 Partly cloudy - 11.3 1013.9 9.6
23/03:00pm NNE 1 3 - - - - 10 Partly cloudy Rain 11.4 1013.7 9.4
23/02:30pm NE 2 3 - - - - 10 Cloudy - 11.3 1013.6 9.4
23/02:00pm SW 4 6 - - - - 10 Cloudy - 11.1 1013.8 9.0
23/01:30pm WSW 4 7 - - - - 10 Cloudy - 11.2 1014.4 8.4

Other formats

Comma delimited format used in spreadsheet applications
http://www.bom.gov.au/fwo/IDQ60701/IDQ60701.94370.axf

JavaScript Object Notation format (JSON) in row-major order
http://www.bom.gov.au/fwo/IDQ60701/IDQ60701.94370.json

Data quality

Most of these data are generated automatically and are frequently updated. Quality checks on data are not normally performed. It is possible for incorrect values to appear. Refer to information at About Latest Weather Observations and please check the disclaimer before using these data.